sensor_id;sensor_type;location;lat;lon;timestamp;P1;durP1;ratioP1;P2;durP2;ratioP2
37001;SDS011;22913;51.910;8.374;2022-10-16T00:01:09;6.83;;;4.30;;
37001;SDS011;22913;51.910;8.374;2022-10-16T00:03:56;6.17;;;4.77;;
37001;SDS011;22913;51.910;8.374;2022-10-16T00:06:45;6.80;;;4.33;;
37001;SDS011;22913;51.910;8.374;2022-10-16T00:09:30;5.20;;;4.73;;
37001;SDS011;22913;51.910;8.374;2022-10-16T00:12:16;8.97;;;4.00;;
37001;SDS011;22913;51.910;8.374;2022-10-16T00:15:02;6.40;;;4.27;;
37001;SDS011;22913;51.910;8.374;2022-10-16T00:17:48;4.93;;;4.40;;
37001;SDS011;22913;51.910;8.374;2022-10-16T00:20:34;5.10;;;4.57;;
37001;SDS011;22913;51.910;8.374;2022-10-16T00:23:22;5.30;;;4.80;;
37001;SDS011;22913;51.910;8.374;2022-10-16T00:26:08;5.57;;;4.90;;
37001;SDS011;22913;51.910;8.374;2022-10-16T00:28:56;8.30;;;4.60;;
37001;SDS011;22913;51.910;8.374;2022-10-16T00:31:42;6.30;;;4.80;;
37001;SDS011;22913;51.910;8.374;2022-10-16T00:34:28;5.73;;;5.17;;
37001;SDS011;22913;51.910;8.374;2022-10-16T00:37:14;4.97;;;4.57;;
37001;SDS011;22913;51.910;8.374;2022-10-16T00:40:01;4.63;;;4.23;;
37001;SDS011;22913;51.910;8.374;2022-10-16T00:42:48;6.63;;;4.97;;
37001;SDS011;22913;51.910;8.374;2022-10-16T00:45:34;10.47;;;5.30;;
37001;SDS011;22913;51.910;8.374;2022-10-16T00:48:20;4.97;;;4.47;;
37001;SDS011;22913;51.910;8.374;2022-10-16T00:51:06;5.40;;;4.90;;
37001;SDS011;22913;51.910;8.374;2022-10-16T00:53:53;6.07;;;4.87;;
37001;SDS011;22913;51.910;8.374;2022-10-16T00:56:41;6.33;;;4.43;;
37001;SDS011;22913;51.910;8.374;2022-10-16T00:59:28;5.47;;;4.97;;
37001;SDS011;22913;51.910;8.374;2022-10-16T01:02:16;8.50;;;5.40;;
37001;SDS011;22913;51.910;8.374;2022-10-16T01:05:02;7.20;;;5.10;;
37001;SDS011;22913;51.910;8.374;2022-10-16T01:07:52;5.17;;;4.67;;
37001;SDS011;22913;51.910;8.374;2022-10-16T01:10:48;5.67;;;5.13;;
37001;SDS011;22913;51.910;8.374;2022-10-16T01:13:45;5.33;;;4.70;;
37001;SDS011;22913;51.910;8.374;2022-10-16T01:16:34;5.73;;;4.77;;
37001;SDS011;22913;51.910;8.374;2022-10-16T01:19:26;5.33;;;4.83;;
37001;SDS011;22913;51.910;8.374;2022-10-16T01:22:21;5.10;;;4.63;;
37001;SDS011;22913;51.910;8.374;2022-10-16T01:25:12;5.17;;;4.77;;
37001;SDS011;22913;51.910;8.374;2022-10-16T01:28:08;5.77;;;5.17;;
37001;SDS011;22913;51.910;8.374;2022-10-16T01:30:58;5.63;;;4.40;;
37001;SDS011;22913;51.910;8.374;2022-10-16T01:33:47;5.30;;;4.60;;
37001;SDS011;22913;51.910;8.374;2022-10-16T01:36:37;6.40;;;4.63;;
37001;SDS011;22913;51.910;8.374;2022-10-16T01:39:27;8.17;;;5.40;;
37001;SDS011;22913;51.910;8.374;2022-10-16T01:42:16;5.07;;;4.67;;
37001;SDS011;22913;51.910;8.374;2022-10-16T01:45:08;5.50;;;4.80;;
37001;SDS011;22913;51.910;8.374;2022-10-16T01:47:58;8.33;;;4.70;;
37001;SDS011;22913;51.910;8.374;2022-10-16T01:50:49;10.00;;;5.30;;
37001;SDS011;22913;51.910;8.374;2022-10-16T01:53:38;5.47;;;4.97;;
37001;SDS011;22913;51.910;8.374;2022-10-16T01:56:26;5.00;;;4.50;;
37001;SDS011;22913;51.910;8.374;2022-10-16T01:59:13;5.87;;;4.90;;
37001;SDS011;22913;51.910;8.374;2022-10-16T02:02:05;7.27;;;5.50;;
37001;SDS011;22913;51.910;8.374;2022-10-16T02:04:55;7.87;;;5.40;;
37001;SDS011;22913;51.910;8.374;2022-10-16T02:07:44;6.67;;;5.13;;
37001;SDS011;22913;51.910;8.374;2022-10-16T02:10:30;5.53;;;4.97;;
37001;SDS011;22913;51.910;8.374;2022-10-16T02:13:17;7.67;;;5.00;;
37001;SDS011;22913;51.910;8.374;2022-10-16T02:16:08;5.30;;;4.77;;
37001;SDS011;22913;51.910;8.374;2022-10-16T02:18:56;5.90;;;5.40;;
37001;SDS011;22913;51.910;8.374;2022-10-16T02:21:43;6.63;;;5.30;;
37001;SDS011;22913;51.910;8.374;2022-10-16T02:24:32;7.13;;;4.83;;
37001;SDS011;22913;51.910;8.374;2022-10-16T02:27:24;8.37;;;5.03;;
37001;SDS011;22913;51.910;8.374;2022-10-16T02:30:13;5.70;;;5.10;;
37001;SDS011;22913;51.910;8.374;2022-10-16T02:33:05;5.43;;;4.90;;
37001;SDS011;22913;51.910;8.374;2022-10-16T02:35:54;6.80;;;5.20;;
37001;SDS011;22913;51.910;8.374;2022-10-16T02:38:42;5.17;;;4.70;;
37001;SDS011;22913;51.910;8.374;2022-10-16T02:41:28;5.63;;;4.80;;
37001;SDS011;22913;51.910;8.374;2022-10-16T02:44:14;5.00;;;4.53;;
37001;SDS011;22913;51.910;8.374;2022-10-16T02:47:00;6.63;;;4.80;;
37001;SDS011;22913;51.910;8.374;2022-10-16T02:49:46;5.17;;;4.67;;
37001;SDS011;22913;51.910;8.374;2022-10-16T02:52:33;5.97;;;4.80;;
37001;SDS011;22913;51.910;8.374;2022-10-16T02:55:18;6.83;;;4.90;;
37001;SDS011;22913;51.910;8.374;2022-10-16T02:58:04;5.40;;;4.57;;
37001;SDS011;22913;51.910;8.374;2022-10-16T03:00:50;6.87;;;4.70;;
37001;SDS011;22913;51.910;8.374;2022-10-16T03:03:36;4.93;;;4.53;;
37001;SDS011;22913;51.910;8.374;2022-10-16T03:06:22;4.87;;;4.47;;
37001;SDS011;22913;51.910;8.374;2022-10-16T03:09:09;4.80;;;4.40;;
37001;SDS011;22913;51.910;8.374;2022-10-16T03:11:55;5.10;;;4.60;;
37001;SDS011;22913;51.910;8.374;2022-10-16T03:14:41;5.27;;;4.77;;
37001;SDS011;22913;51.910;8.374;2022-10-16T03:17:27;5.50;;;4.67;;
37001;SDS011;22913;51.910;8.374;2022-10-16T03:20:13;5.60;;;4.57;;
37001;SDS011;22913;51.910;8.374;2022-10-16T03:22:59;7.27;;;4.77;;
37001;SDS011;22913;51.910;8.374;2022-10-16T03:25:48;4.60;;;4.17;;
37001;SDS011;22913;51.910;8.374;2022-10-16T03:28:33;6.30;;;4.53;;
37001;SDS011;22913;51.910;8.374;2022-10-16T03:31:19;4.97;;;4.40;;
37001;SDS011;22913;51.910;8.374;2022-10-16T03:34:05;4.47;;;3.77;;
37001;SDS011;22913;51.910;8.374;2022-10-16T03:36:52;4.47;;;3.97;;
37001;SDS011;22913;51.910;8.374;2022-10-16T03:39:38;3.83;;;3.53;;
37001;SDS011;22913;51.910;8.374;2022-10-16T03:42:25;3.53;;;3.33;;
37001;SDS011;22913;51.910;8.374;2022-10-16T03:45:11;4.87;;;3.70;;
37001;SDS011;22913;51.910;8.374;2022-10-16T03:47:57;4.00;;;3.70;;
37001;SDS011;22913;51.910;8.374;2022-10-16T03:50:42;6.10;;;4.00;;
37001;SDS011;22913;51.910;8.374;2022-10-16T03:53:29;3.50;;;3.20;;
37001;SDS011;22913;51.910;8.374;2022-10-16T03:56:15;3.40;;;3.10;;
37001;SDS011;22913;51.910;8.374;2022-10-16T03:59:03;3.93;;;3.47;;
37001;SDS011;22913;51.910;8.374;2022-10-16T04:01:48;3.83;;;3.17;;
37001;SDS011;22913;51.910;8.374;2022-10-16T04:04:34;3.57;;;3.10;;
37001;SDS011;22913;51.910;8.374;2022-10-16T04:07:20;3.53;;;3.23;;
37001;SDS011;22913;51.910;8.374;2022-10-16T04:10:06;3.10;;;2.80;;
37001;SDS011;22913;51.910;8.374;2022-10-16T04:12:52;7.50;;;2.97;;
37001;SDS011;22913;51.910;8.374;2022-10-16T04:15:40;4.40;;;3.10;;
37001;SDS011;22913;51.910;8.374;2022-10-16T04:18:26;4.03;;;3.17;;
37001;SDS011;22913;51.910;8.374;2022-10-16T04:21:12;3.40;;;3.10;;
37001;SDS011;22913;51.910;8.374;2022-10-16T04:23:58;2.70;;;2.50;;
37001;SDS011;22913;51.910;8.374;2022-10-16T04:26:44;3.03;;;2.50;;
37001;SDS011;22913;51.910;8.374;2022-10-16T04:29:30;6.30;;;2.47;;
37001;SDS011;22913;51.910;8.374;2022-10-16T04:32:17;3.93;;;2.63;;
37001;SDS011;22913;51.910;8.374;2022-10-16T04:35:03;2.43;;;2.20;;
37001;SDS011;22913;51.910;8.374;2022-10-16T04:37:49;4.13;;;2.60;;
37001;SDS011;22913;51.910;8.374;2022-10-16T04:40:35;2.17;;;2.03;;
37001;SDS011;22913;51.910;8.374;2022-10-16T04:43:21;2.57;;;2.30;;
37001;SDS011;22913;51.910;8.374;2022-10-16T04:46:07;2.80;;;2.40;;
37001;SDS011;22913;51.910;8.374;2022-10-16T04:48:58;4.07;;;2.60;;
37001;SDS011;22913;51.910;8.374;2022-10-16T04:51:43;2.43;;;2.23;;
37001;SDS011;22913;51.910;8.374;2022-10-16T04:54:29;2.93;;;2.43;;
37001;SDS011;22913;51.910;8.374;2022-10-16T04:57:15;2.53;;;2.33;;
37001;SDS011;22913;51.910;8.374;2022-10-16T05:00:02;2.43;;;2.20;;
37001;SDS011;22913;51.910;8.374;2022-10-16T05:02:49;3.10;;;2.50;;
37001;SDS011;22913;51.910;8.374;2022-10-16T05:05:36;5.77;;;2.50;;
37001;SDS011;22913;51.910;8.374;2022-10-16T05:08:26;2.83;;;2.37;;
37001;SDS011;22913;51.910;8.374;2022-10-16T05:11:12;2.30;;;2.20;;
37001;SDS011;22913;51.910;8.374;2022-10-16T05:13:58;3.80;;;2.40;;
37001;SDS011;22913;51.910;8.374;2022-10-16T05:16:44;3.30;;;2.50;;
37001;SDS011;22913;51.910;8.374;2022-10-16T05:19:31;2.40;;;2.20;;
37001;SDS011;22913;51.910;8.374;2022-10-16T05:22:18;2.40;;;2.20;;
37001;SDS011;22913;51.910;8.374;2022-10-16T05:25:04;3.80;;;2.60;;
37001;SDS011;22913;51.910;8.374;2022-10-16T05:27:50;2.40;;;2.20;;
37001;SDS011;22913;51.910;8.374;2022-10-16T05:30:37;5.33;;;2.10;;
37001;SDS011;22913;51.910;8.374;2022-10-16T05:33:23;4.50;;;2.60;;
37001;SDS011;22913;51.910;8.374;2022-10-16T05:36:10;2.40;;;2.20;;
37001;SDS011;22913;51.910;8.374;2022-10-16T05:38:58;2.60;;;2.40;;
37001;SDS011;22913;51.910;8.374;2022-10-16T05:41:44;5.83;;;2.67;;
37001;SDS011;22913;51.910;8.374;2022-10-16T05:44:30;3.03;;;2.33;;
37001;SDS011;22913;51.910;8.374;2022-10-16T05:47:16;3.30;;;2.57;;
37001;SDS011;22913;51.910;8.374;2022-10-16T05:50:02;4.00;;;2.57;;
37001;SDS011;22913;51.910;8.374;2022-10-16T05:52:49;5.10;;;2.50;;
37001;SDS011;22913;51.910;8.374;2022-10-16T05:55:36;2.70;;;2.50;;
37001;SDS011;22913;51.910;8.374;2022-10-16T05:58:22;4.67;;;2.53;;
37001;SDS011;22913;51.910;8.374;2022-10-16T06:01:09;2.90;;;2.67;;
37001;SDS011;22913;51.910;8.374;2022-10-16T06:03:57;2.47;;;2.30;;
37001;SDS011;22913;51.910;8.374;2022-10-16T06:06:43;2.57;;;2.33;;
37001;SDS011;22913;51.910;8.374;2022-10-16T06:09:28;3.47;;;2.43;;
37001;SDS011;22913;51.910;8.374;2022-10-16T06:12:16;2.10;;;1.90;;
37001;SDS011;22913;51.910;8.374;2022-10-16T06:15:02;2.63;;;2.50;;
37001;SDS011;22913;51.910;8.374;2022-10-16T06:17:48;2.63;;;2.43;;
37001;SDS011;22913;51.910;8.374;2022-10-16T06:20:34;2.93;;;2.20;;
37001;SDS011;22913;51.910;8.374;2022-10-16T06:23:21;4.23;;;2.20;;
37001;SDS011;22913;51.910;8.374;2022-10-16T06:26:07;4.23;;;2.70;;
37001;SDS011;22913;51.910;8.374;2022-10-16T06:28:54;4.63;;;2.20;;
37001;SDS011;22913;51.910;8.374;2022-10-16T06:31:41;4.23;;;1.97;;
37001;SDS011;22913;51.910;8.374;2022-10-16T06:34:27;3.27;;;2.33;;
37001;SDS011;22913;51.910;8.374;2022-10-16T06:37:13;2.77;;;2.17;;
37001;SDS011;22913;51.910;8.374;2022-10-16T06:39:59;3.33;;;2.27;;
37001;SDS011;22913;51.910;8.374;2022-10-16T06:42:47;2.70;;;1.60;;
37001;SDS011;22913;51.910;8.374;2022-10-16T06:45:36;5.00;;;1.93;;
37001;SDS011;22913;51.910;8.374;2022-10-16T06:48:23;1.63;;;1.63;;
37001;SDS011;22913;51.910;8.374;2022-10-16T06:51:09;2.10;;;2.00;;
37001;SDS011;22913;51.910;8.374;2022-10-16T06:53:56;2.83;;;1.63;;
37001;SDS011;22913;51.910;8.374;2022-10-16T06:56:42;1.90;;;1.80;;
37001;SDS011;22913;51.910;8.374;2022-10-16T06:59:29;2.60;;;1.80;;
37001;SDS011;22913;51.910;8.374;2022-10-16T07:02:16;1.80;;;1.70;;
37001;SDS011;22913;51.910;8.374;2022-10-16T07:05:02;4.67;;;1.83;;
37001;SDS011;22913;51.910;8.374;2022-10-16T07:07:48;3.10;;;1.90;;
37001;SDS011;22913;51.910;8.374;2022-10-16T07:10:35;2.00;;;1.70;;
37001;SDS011;22913;51.910;8.374;2022-10-16T07:13:20;1.70;;;1.60;;
37001;SDS011;22913;51.910;8.374;2022-10-16T07:16:07;2.60;;;1.60;;
37001;SDS011;22913;51.910;8.374;2022-10-16T07:18:56;1.80;;;1.70;;
37001;SDS011;22913;51.910;8.374;2022-10-16T07:21:43;1.53;;;1.50;;
37001;SDS011;22913;51.910;8.374;2022-10-16T07:24:29;1.70;;;1.60;;
37001;SDS011;22913;51.910;8.374;2022-10-16T07:27:15;2.00;;;1.70;;
37001;SDS011;22913;51.910;8.374;2022-10-16T07:30:04;1.67;;;1.53;;
37001;SDS011;22913;51.910;8.374;2022-10-16T07:32:51;2.60;;;2.17;;
37001;SDS011;22913;51.910;8.374;2022-10-16T07:35:38;2.03;;;1.33;;
37001;SDS011;22913;51.910;8.374;2022-10-16T07:38:31;3.07;;;1.90;;
37001;SDS011;22913;51.910;8.374;2022-10-16T07:41:18;3.03;;;2.00;;
37001;SDS011;22913;51.910;8.374;2022-10-16T07:44:04;2.13;;;1.70;;
37001;SDS011;22913;51.910;8.374;2022-10-16T07:46:52;2.13;;;1.90;;
37001;SDS011;22913;51.910;8.374;2022-10-16T07:49:38;3.17;;;1.80;;
37001;SDS011;22913;51.910;8.374;2022-10-16T07:52:25;2.57;;;1.70;;
37001;SDS011;22913;51.910;8.374;2022-10-16T07:55:11;2.90;;;1.80;;
37001;SDS011;22913;51.910;8.374;2022-10-16T07:57:57;2.67;;;1.80;;
37001;SDS011;22913;51.910;8.374;2022-10-16T08:00:42;1.50;;;1.40;;
37001;SDS011;22913;51.910;8.374;2022-10-16T08:03:28;1.93;;;1.83;;
37001;SDS011;22913;51.910;8.374;2022-10-16T08:06:13;1.73;;;1.60;;
37001;SDS011;22913;51.910;8.374;2022-10-16T08:09:00;2.07;;;1.33;;
37001;SDS011;22913;51.910;8.374;2022-10-16T08:11:46;2.00;;;1.50;;
37001;SDS011;22913;51.910;8.374;2022-10-16T08:14:32;1.70;;;1.60;;
37001;SDS011;22913;51.910;8.374;2022-10-16T08:17:17;1.33;;;1.23;;
37001;SDS011;22913;51.910;8.374;2022-10-16T08:20:03;6.10;;;1.77;;
37001;SDS011;22913;51.910;8.374;2022-10-16T08:22:50;1.77;;;1.67;;
37001;SDS011;22913;51.910;8.374;2022-10-16T08:25:37;1.50;;;1.40;;
37001;SDS011;22913;51.910;8.374;2022-10-16T08:28:23;1.60;;;1.50;;
37001;SDS011;22913;51.910;8.374;2022-10-16T08:31:09;2.03;;;1.47;;
37001;SDS011;22913;51.910;8.374;2022-10-16T08:33:55;2.03;;;1.27;;
37001;SDS011;22913;51.910;8.374;2022-10-16T08:36:41;3.23;;;1.50;;
37001;SDS011;22913;51.910;8.374;2022-10-16T08:39:27;2.53;;;1.50;;
37001;SDS011;22913;51.910;8.374;2022-10-16T08:42:20;1.43;;;1.33;;
37001;SDS011;22913;51.910;8.374;2022-10-16T08:45:19;2.83;;;1.40;;
37001;SDS011;22913;51.910;8.374;2022-10-16T08:48:15;1.43;;;1.40;;
37001;SDS011;22913;51.910;8.374;2022-10-16T08:51:04;2.80;;;1.50;;
37001;SDS011;22913;51.910;8.374;2022-10-16T08:53:54;1.70;;;1.33;;
37001;SDS011;22913;51.910;8.374;2022-10-16T08:56:40;2.70;;;1.67;;
37001;SDS011;22913;51.910;8.374;2022-10-16T08:59:27;1.60;;;1.50;;
37001;SDS011;22913;51.910;8.374;2022-10-16T09:02:18;2.23;;;1.40;;
37001;SDS011;22913;51.910;8.374;2022-10-16T09:05:21;2.30;;;1.67;;
37001;SDS011;22913;51.910;8.374;2022-10-16T09:08:14;1.30;;;1.30;;
37001;SDS011;22913;51.910;8.374;2022-10-16T09:11:08;1.43;;;1.33;;
37001;SDS011;22913;51.910;8.374;2022-10-16T09:14:00;2.20;;;1.50;;
37001;SDS011;22913;51.910;8.374;2022-10-16T09:16:53;2.63;;;1.50;;
37001;SDS011;22913;51.910;8.374;2022-10-16T09:19:46;1.70;;;1.60;;
37001;SDS011;22913;51.910;8.374;2022-10-16T09:22:37;2.57;;;1.60;;
37001;SDS011;22913;51.910;8.374;2022-10-16T09:25:23;3.77;;;1.27;;
37001;SDS011;22913;51.910;8.374;2022-10-16T09:28:08;2.20;;;1.60;;
37001;SDS011;22913;51.910;8.374;2022-10-16T09:30:55;1.70;;;1.20;;
37001;SDS011;22913;51.910;8.374;2022-10-16T09:33:42;2.93;;;1.20;;
37001;SDS011;22913;51.910;8.374;2022-10-16T09:36:29;2.40;;;1.30;;
37001;SDS011;22913;51.910;8.374;2022-10-16T09:39:24;2.90;;;1.20;;
37001;SDS011;22913;51.910;8.374;2022-10-16T09:42:10;5.97;;;1.87;;
37001;SDS011;22913;51.910;8.374;2022-10-16T09:44:58;1.30;;;1.20;;
37001;SDS011;22913;51.910;8.374;2022-10-16T09:47:44;3.13;;;1.17;;
37001;SDS011;22913;51.910;8.374;2022-10-16T09:50:31;4.30;;;1.30;;
37001;SDS011;22913;51.910;8.374;2022-10-16T09:53:18;1.90;;;1.40;;
37001;SDS011;22913;51.910;8.374;2022-10-16T09:56:06;3.70;;;1.17;;
37001;SDS011;22913;51.910;8.374;2022-10-16T09:58:53;2.83;;;1.30;;
37001;SDS011;22913;51.910;8.374;2022-10-16T10:01:41;4.60;;;1.20;;
37001;SDS011;22913;51.910;8.374;2022-10-16T10:04:37;4.00;;;1.43;;
37001;SDS011;22913;51.910;8.374;2022-10-16T10:07:35;5.77;;;1.37;;
37001;SDS011;22913;51.910;8.374;2022-10-16T10:10:28;3.63;;;1.20;;
37001;SDS011;22913;51.910;8.374;2022-10-16T10:13:17;3.27;;;1.50;;
37001;SDS011;22913;51.910;8.374;2022-10-16T10:16:04;2.10;;;1.13;;
37001;SDS011;22913;51.910;8.374;2022-10-16T10:18:57;3.33;;;1.00;;
37001;SDS011;22913;51.910;8.374;2022-10-16T10:21:43;1.70;;;1.10;;
37001;SDS011;22913;51.910;8.374;2022-10-16T10:24:30;3.03;;;1.27;;
37001;SDS011;22913;51.910;8.374;2022-10-16T10:27:16;3.07;;;1.60;;
37001;SDS011;22913;51.910;8.374;2022-10-16T10:30:04;1.83;;;1.10;;
37001;SDS011;22913;51.910;8.374;2022-10-16T10:32:56;2.17;;;1.10;;
37001;SDS011;22913;51.910;8.374;2022-10-16T10:35:58;1.60;;;1.30;;
37001;SDS011;22913;51.910;8.374;2022-10-16T10:38:54;1.43;;;1.10;;
37001;SDS011;22913;51.910;8.374;2022-10-16T10:42:00;1.70;;;1.20;;
37001;SDS011;22913;51.910;8.374;2022-10-16T10:45:21;1.13;;;1.10;;
37001;SDS011;22913;51.910;8.374;2022-10-16T10:48:24;3.50;;;1.20;;
37001;SDS011;22913;51.910;8.374;2022-10-16T10:51:28;1.57;;;1.07;;
37001;SDS011;22913;51.910;8.374;2022-10-16T10:54:24;1.30;;;1.20;;
37001;SDS011;22913;51.910;8.374;2022-10-16T10:57:20;1.10;;;0.83;;
37001;SDS011;22913;51.910;8.374;2022-10-16T11:00:13;2.03;;;1.10;;
37001;SDS011;22913;51.910;8.374;2022-10-16T11:03:06;1.90;;;1.20;;
37001;SDS011;22913;51.910;8.374;2022-10-16T11:06:04;3.33;;;1.07;;
37001;SDS011;22913;51.910;8.374;2022-10-16T11:08:53;2.60;;;1.57;;
37001;SDS011;22913;51.910;8.374;2022-10-16T11:11:43;2.80;;;1.10;;
37001;SDS011;22913;51.910;8.374;2022-10-16T11:14:35;3.23;;;0.97;;
37001;SDS011;22913;51.910;8.374;2022-10-16T11:17:27;1.10;;;1.00;;
37001;SDS011;22913;51.910;8.374;2022-10-16T11:20:16;1.20;;;1.00;;
37001;SDS011;22913;51.910;8.374;2022-10-16T11:23:07;2.10;;;1.20;;
37001;SDS011;22913;51.910;8.374;2022-10-16T11:25:59;2.80;;;1.23;;
37001;SDS011;22913;51.910;8.374;2022-10-16T11:28:50;2.07;;;1.10;;
37001;SDS011;22913;51.910;8.374;2022-10-16T11:31:41;1.90;;;1.20;;
37001;SDS011;22913;51.910;8.374;2022-10-16T11:34:34;2.03;;;1.30;;
37001;SDS011;22913;51.910;8.374;2022-10-16T11:37:27;2.50;;;1.20;;
37001;SDS011;22913;51.910;8.374;2022-10-16T11:40:19;2.20;;;1.10;;
37001;SDS011;22913;51.910;8.374;2022-10-16T11:43:10;1.00;;;0.90;;
37001;SDS011;22913;51.910;8.374;2022-10-16T11:46:02;3.67;;;1.40;;
37001;SDS011;22913;51.910;8.374;2022-10-16T11:48:56;0.90;;;0.83;;
37001;SDS011;22913;51.910;8.374;2022-10-16T11:51:48;3.03;;;1.10;;
37001;SDS011;22913;51.910;8.374;2022-10-16T11:54:45;1.10;;;0.80;;
37001;SDS011;22913;51.910;8.374;2022-10-16T11:57:38;0.80;;;0.80;;
37001;SDS011;22913;51.910;8.374;2022-10-16T12:00:27;1.50;;;1.00;;
37001;SDS011;22913;51.910;8.374;2022-10-16T12:03:17;3.43;;;1.20;;
37001;SDS011;22913;51.910;8.374;2022-10-16T12:06:14;3.10;;;1.20;;
37001;SDS011;22913;51.910;8.374;2022-10-16T12:09:09;1.17;;;0.90;;
37001;SDS011;22913;51.910;8.374;2022-10-16T12:12:00;1.40;;;1.30;;
37001;SDS011;22913;51.910;8.374;2022-10-16T12:14:46;3.77;;;1.37;;
37001;SDS011;22913;51.910;8.374;2022-10-16T12:17:34;2.17;;;1.30;;
37001;SDS011;22913;51.910;8.374;2022-10-16T12:20:24;1.70;;;0.93;;
37001;SDS011;22913;51.910;8.374;2022-10-16T12:23:19;1.67;;;0.90;;
37001;SDS011;22913;51.910;8.374;2022-10-16T12:26:07;1.37;;;1.27;;
37001;SDS011;22913;51.910;8.374;2022-10-16T12:28:53;3.37;;;1.43;;
37001;SDS011;22913;51.910;8.374;2022-10-16T12:31:42;1.90;;;1.23;;
37001;SDS011;22913;51.910;8.374;2022-10-16T12:34:33;1.60;;;1.10;;
37001;SDS011;22913;51.910;8.374;2022-10-16T12:37:23;1.13;;;1.13;;
37001;SDS011;22913;51.910;8.374;2022-10-16T12:40:13;1.90;;;1.20;;
37001;SDS011;22913;51.910;8.374;2022-10-16T12:43:11;2.40;;;1.17;;
37001;SDS011;22913;51.910;8.374;2022-10-16T12:46:21;1.63;;;1.30;;
37001;SDS011;22913;51.910;8.374;2022-10-16T12:49:28;1.40;;;1.30;;
37001;SDS011;22913;51.910;8.374;2022-10-16T12:52:23;1.13;;;0.93;;
37001;SDS011;22913;51.910;8.374;2022-10-16T12:55:16;1.90;;;1.60;;
37001;SDS011;22913;51.910;8.374;2022-10-16T12:58:06;1.73;;;1.50;;
37001;SDS011;22913;51.910;8.374;2022-10-16T13:01:02;2.67;;;1.43;;
37001;SDS011;22913;51.910;8.374;2022-10-16T13:04:10;1.03;;;0.93;;
37001;SDS011;22913;51.910;8.374;2022-10-16T13:07:21;3.03;;;1.37;;
37001;SDS011;22913;51.910;8.374;2022-10-16T13:10:23;3.40;;;1.40;;
37001;SDS011;22913;51.910;8.374;2022-10-16T13:13:20;1.73;;;0.97;;
37001;SDS011;22913;51.910;8.374;2022-10-16T13:16:30;1.17;;;1.00;;
37001;SDS011;22913;51.910;8.374;2022-10-16T13:19:28;2.10;;;1.10;;
37001;SDS011;22913;51.910;8.374;2022-10-16T13:22:21;3.87;;;1.33;;
37001;SDS011;22913;51.910;8.374;2022-10-16T13:25:17;1.13;;;1.10;;
37001;SDS011;22913;51.910;8.374;2022-10-16T13:28:12;1.27;;;1.00;;
37001;SDS011;22913;51.910;8.374;2022-10-16T13:30:59;2.43;;;1.13;;
37001;SDS011;22913;51.910;8.374;2022-10-16T13:33:46;2.00;;;1.00;;
37001;SDS011;22913;51.910;8.374;2022-10-16T13:36:35;1.20;;;1.10;;
37001;SDS011;22913;51.910;8.374;2022-10-16T13:39:29;2.17;;;1.27;;
37001;SDS011;22913;51.910;8.374;2022-10-16T13:42:18;1.27;;;1.17;;
37001;SDS011;22913;51.910;8.374;2022-10-16T13:45:16;3.07;;;1.23;;
37001;SDS011;22913;51.910;8.374;2022-10-16T13:48:03;3.03;;;1.60;;
37001;SDS011;22913;51.910;8.374;2022-10-16T13:51:00;1.30;;;1.20;;
37001;SDS011;22913;51.910;8.374;2022-10-16T13:53:47;1.10;;;1.00;;
37001;SDS011;22913;51.910;8.374;2022-10-16T13:56:32;1.17;;;1.07;;
37001;SDS011;22913;51.910;8.374;2022-10-16T13:59:26;3.30;;;1.40;;
37001;SDS011;22913;51.910;8.374;2022-10-16T14:02:19;2.60;;;1.13;;
37001;SDS011;22913;51.910;8.374;2022-10-16T14:05:10;1.53;;;0.83;;
37001;SDS011;22913;51.910;8.374;2022-10-16T14:07:57;1.10;;;1.00;;
37001;SDS011;22913;51.910;8.374;2022-10-16T14:10:46;1.20;;;0.87;;
37001;SDS011;22913;51.910;8.374;2022-10-16T14:13:36;1.67;;;1.23;;
37001;SDS011;22913;51.910;8.374;2022-10-16T14:16:25;2.00;;;1.10;;
37001;SDS011;22913;51.910;8.374;2022-10-16T14:19:15;3.20;;;1.27;;
37001;SDS011;22913;51.910;8.374;2022-10-16T14:22:11;2.30;;;1.17;;
37001;SDS011;22913;51.910;8.374;2022-10-16T14:25:19;1.60;;;1.20;;
37001;SDS011;22913;51.910;8.374;2022-10-16T14:28:15;2.10;;;1.10;;
37001;SDS011;22913;51.910;8.374;2022-10-16T14:31:02;5.17;;;1.00;;
37001;SDS011;22913;51.910;8.374;2022-10-16T14:34:23;3.30;;;1.30;;
37001;SDS011;22913;51.910;8.374;2022-10-16T14:37:16;1.17;;;0.87;;
37001;SDS011;22913;51.910;8.374;2022-10-16T14:40:11;2.50;;;1.20;;
37001;SDS011;22913;51.910;8.374;2022-10-16T14:42:59;2.50;;;1.30;;
37001;SDS011;22913;51.910;8.374;2022-10-16T14:45:49;1.70;;;0.80;;
37001;SDS011;22913;51.910;8.374;2022-10-16T14:48:39;1.77;;;0.90;;
37001;SDS011;22913;51.910;8.374;2022-10-16T14:51:26;1.20;;;1.10;;
37001;SDS011;22913;51.910;8.374;2022-10-16T14:54:12;1.80;;;1.10;;
37001;SDS011;22913;51.910;8.374;2022-10-16T14:56:58;1.53;;;1.00;;
37001;SDS011;22913;51.910;8.374;2022-10-16T14:59:44;2.23;;;1.20;;
37001;SDS011;22913;51.910;8.374;2022-10-16T15:02:31;1.20;;;0.97;;
37001;SDS011;22913;51.910;8.374;2022-10-16T15:05:20;3.43;;;1.40;;
37001;SDS011;22913;51.910;8.374;2022-10-16T15:08:07;6.47;;;1.67;;
37001;SDS011;22913;51.910;8.374;2022-10-16T15:10:53;1.20;;;1.10;;
37001;SDS011;22913;51.910;8.374;2022-10-16T15:13:38;1.23;;;1.10;;
37001;SDS011;22913;51.910;8.374;2022-10-16T15:16:24;1.67;;;1.23;;
37001;SDS011;22913;51.910;8.374;2022-10-16T15:19:09;1.30;;;0.90;;
37001;SDS011;22913;51.910;8.374;2022-10-16T15:21:56;0.83;;;0.83;;
37001;SDS011;22913;51.910;8.374;2022-10-16T15:24:42;1.93;;;1.30;;
37001;SDS011;22913;51.910;8.374;2022-10-16T15:27:28;2.63;;;1.20;;
37001;SDS011;22913;51.910;8.374;2022-10-16T15:30:13;1.43;;;1.20;;
37001;SDS011;22913;51.910;8.374;2022-10-16T15:32:59;2.27;;;1.10;;
37001;SDS011;22913;51.910;8.374;2022-10-16T15:35:46;1.33;;;1.10;;
37001;SDS011;22913;51.910;8.374;2022-10-16T15:38:33;1.77;;;0.93;;
37001;SDS011;22913;51.910;8.374;2022-10-16T15:41:20;0.90;;;0.90;;
37001;SDS011;22913;51.910;8.374;2022-10-16T15:44:06;2.27;;;1.33;;
37001;SDS011;22913;51.910;8.374;2022-10-16T15:46:52;2.03;;;1.30;;
37001;SDS011;22913;51.910;8.374;2022-10-16T15:49:40;2.20;;;1.33;;
37001;SDS011;22913;51.910;8.374;2022-10-16T15:52:25;1.97;;;1.27;;
37001;SDS011;22913;51.910;8.374;2022-10-16T15:55:13;2.03;;;1.20;;
37001;SDS011;22913;51.910;8.374;2022-10-16T15:57:59;2.73;;;1.30;;
37001;SDS011;22913;51.910;8.374;2022-10-16T16:00:45;2.47;;;1.30;;
37001;SDS011;22913;51.910;8.374;2022-10-16T16:03:38;1.07;;;1.03;;
37001;SDS011;22913;51.910;8.374;2022-10-16T16:06:24;1.43;;;1.33;;
37001;SDS011;22913;51.910;8.374;2022-10-16T16:09:10;2.00;;;1.30;;
37001;SDS011;22913;51.910;8.374;2022-10-16T16:11:57;3.23;;;1.80;;
37001;SDS011;22913;51.910;8.374;2022-10-16T16:14:44;3.47;;;2.17;;
37001;SDS011;22913;51.910;8.374;2022-10-16T16:17:32;4.03;;;3.13;;
37001;SDS011;22913;51.910;8.374;2022-10-16T16:20:18;3.87;;;2.20;;
37001;SDS011;22913;51.910;8.374;2022-10-16T16:23:03;3.20;;;1.60;;
37001;SDS011;22913;51.910;8.374;2022-10-16T16:28:56;2.30;;;2.10;;
37001;SDS011;22913;51.910;8.374;2022-10-16T16:31:42;2.90;;;2.30;;
37001;SDS011;22913;51.910;8.374;2022-10-16T16:34:30;3.23;;;2.60;;
37001;SDS011;22913;51.910;8.374;2022-10-16T16:37:16;3.37;;;3.03;;
37001;SDS011;22913;51.910;8.374;2022-10-16T16:40:02;4.27;;;3.47;;
37001;SDS011;22913;51.910;8.374;2022-10-16T16:42:48;4.30;;;3.90;;
37001;SDS011;22913;51.910;8.374;2022-10-16T16:45:36;4.03;;;3.00;;
37001;SDS011;22913;51.910;8.374;2022-10-16T16:48:21;6.03;;;3.37;;
37001;SDS011;22913;51.910;8.374;2022-10-16T16:51:08;3.87;;;3.27;;
37001;SDS011;22913;51.910;8.374;2022-10-16T16:53:59;7.67;;;4.27;;
37001;SDS011;22913;51.910;8.374;2022-10-16T16:56:44;5.40;;;3.73;;
37001;SDS011;22913;51.910;8.374;2022-10-16T16:59:30;8.07;;;5.30;;
37001;SDS011;22913;51.910;8.374;2022-10-16T17:02:17;5.90;;;4.57;;